Terminal Aerodrome Forecast
Issued by NWS Pocatello, ID

Home | Current Version | Previous Version | Text Only | Print | Product List | Glossary On
Versions: 1 2 3 4 5 6 7 8 9 10 11 12 13 14
544
FTUS45 KPIH 300520
TAFBYI
TAF
KBYI 300520Z 3006/0106 08008KT P6SM FEW060 SCT100 BKN160
     FM301500 08006KT P6SM SCT090
     FM301800 16010KT P6SM SCT090
     FM010200 17010G20KT P6SM SCT100=

USA.gov is the U.S. government's official web portal to all federal, state and local government web resources and services.